sensor_id;sensor_type;location;lat;lon;timestamp;P1;durP1;ratioP1;P2;durP2;ratioP2
7116;SDS011;3600;48.568;7.870;2022-07-23T00:00:13;6.50;;;6.00;;
7116;SDS011;3600;48.568;7.870;2022-07-23T00:02:41;6.80;;;6.22;;
7116;SDS011;3600;48.568;7.870;2022-07-23T00:05:08;6.35;;;5.85;;
7116;SDS011;3600;48.568;7.870;2022-07-23T00:07:35;7.75;;;6.13;;
7116;SDS011;3600;48.568;7.870;2022-07-23T00:10:03;7.28;;;6.68;;
7116;SDS011;3600;48.568;7.870;2022-07-23T00:12:30;7.00;;;6.30;;
7116;SDS011;3600;48.568;7.870;2022-07-23T00:14:57;6.68;;;5.95;;
7116;SDS011;3600;48.568;7.870;2022-07-23T00:17:24;6.95;;;6.35;;
7116;SDS011;3600;48.568;7.870;2022-07-23T00:19:51;6.82;;;6.15;;
7116;SDS011;3600;48.568;7.870;2022-07-23T00:22:19;7.18;;;6.57;;
7116;SDS011;3600;48.568;7.870;2022-07-23T00:24:46;7.18;;;6.50;;
7116;SDS011;3600;48.568;7.870;2022-07-23T00:27:32;7.35;;;6.28;;
7116;SDS011;3600;48.568;7.870;2022-07-23T00:29:59;7.53;;;6.82;;
7116;SDS011;3600;48.568;7.870;2022-07-23T00:32:26;6.95;;;6.45;;
7116;SDS011;3600;48.568;7.870;2022-07-23T00:35:13;7.32;;;6.65;;
7116;SDS011;3600;48.568;7.870;2022-07-23T00:37:40;8.20;;;6.97;;
7116;SDS011;3600;48.568;7.870;2022-07-23T00:40:07;7.57;;;6.88;;
7116;SDS011;3600;48.568;7.870;2022-07-23T00:42:34;7.82;;;6.97;;
7116;SDS011;3600;48.568;7.870;2022-07-23T00:45:01;7.57;;;6.88;;
7116;SDS011;3600;48.568;7.870;2022-07-23T00:47:28;7.70;;;7.00;;
7116;SDS011;3600;48.568;7.870;2022-07-23T00:49:54;7.18;;;6.57;;
7116;SDS011;3600;48.568;7.870;2022-07-23T00:52:21;8.00;;;7.32;;
7116;SDS011;3600;48.568;7.870;2022-07-23T00:54:48;7.90;;;7.20;;
7116;SDS011;3600;48.568;7.870;2022-07-23T00:57:16;7.78;;;7.07;;
7116;SDS011;3600;48.568;7.870;2022-07-23T00:59:43;8.00;;;7.30;;
7116;SDS011;3600;48.568;7.870;2022-07-23T01:02:09;7.90;;;7.28;;
7116;SDS011;3600;48.568;7.870;2022-07-23T01:04:36;7.60;;;7.00;;
7116;SDS011;3600;48.568;7.870;2022-07-23T01:07:03;7.60;;;6.95;;
7116;SDS011;3600;48.568;7.870;2022-07-23T01:09:30;7.68;;;6.93;;
7116;SDS011;3600;48.568;7.870;2022-07-23T01:11:57;7.80;;;7.15;;
7116;SDS011;3600;48.568;7.870;2022-07-23T01:14:25;7.28;;;6.57;;
7116;SDS011;3600;48.568;7.870;2022-07-23T01:16:52;7.82;;;6.97;;
7116;SDS011;3600;48.568;7.870;2022-07-23T01:19:19;7.50;;;6.78;;
7116;SDS011;3600;48.568;7.870;2022-07-23T01:21:47;8.57;;;7.78;;
7116;SDS011;3600;48.568;7.870;2022-07-23T01:24:16;7.40;;;6.80;;
7116;SDS011;3600;48.568;7.870;2022-07-23T01:26:47;7.13;;;6.53;;
7116;SDS011;3600;48.568;7.870;2022-07-23T01:29:14;7.32;;;6.68;;
7116;SDS011;3600;48.568;7.870;2022-07-23T01:31:42;7.40;;;6.80;;
7116;SDS011;3600;48.568;7.870;2022-07-23T01:34:10;7.55;;;6.95;;
7116;SDS011;3600;48.568;7.870;2022-07-23T01:36:37;8.07;;;7.38;;
7116;SDS011;3600;48.568;7.870;2022-07-23T01:39:05;7.88;;;7.18;;
7116;SDS011;3600;48.568;7.870;2022-07-23T01:41:33;7.82;;;7.13;;
7116;SDS011;3600;48.568;7.870;2022-07-23T01:44:00;7.15;;;6.43;;
7116;SDS011;3600;48.568;7.870;2022-07-23T01:46:27;7.18;;;6.53;;
7116;SDS011;3600;48.568;7.870;2022-07-23T01:48:54;6.80;;;6.20;;
7116;SDS011;3600;48.568;7.870;2022-07-23T01:51:20;6.57;;;6.03;;
7116;SDS011;3600;48.568;7.870;2022-07-23T01:53:47;6.45;;;5.85;;
7116;SDS011;3600;48.568;7.870;2022-07-23T01:56:14;7.03;;;6.43;;
7116;SDS011;3600;48.568;7.870;2022-07-23T01:58:41;6.47;;;5.97;;
7116;SDS011;3600;48.568;7.870;2022-07-23T02:01:08;6.53;;;6.00;;
7116;SDS011;3600;48.568;7.870;2022-07-23T02:03:35;6.55;;;5.95;;
7116;SDS011;3600;48.568;7.870;2022-07-23T02:06:02;6.55;;;5.93;;
7116;SDS011;3600;48.568;7.870;2022-07-23T02:08:29;6.55;;;5.95;;
7116;SDS011;3600;48.568;7.870;2022-07-23T02:10:56;7.20;;;6.60;;
7116;SDS011;3600;48.568;7.870;2022-07-23T02:13:23;6.15;;;5.65;;
7116;SDS011;3600;48.568;7.870;2022-07-23T02:15:49;7.18;;;6.47;;
7116;SDS011;3600;48.568;7.870;2022-07-23T02:18:16;7.22;;;6.63;;
7116;SDS011;3600;48.568;7.870;2022-07-23T02:20:43;6.82;;;6.32;;
7116;SDS011;3600;48.568;7.870;2022-07-23T02:23:10;7.07;;;6.57;;
7116;SDS011;3600;48.568;7.870;2022-07-23T02:25:37;7.00;;;6.40;;
7116;SDS011;3600;48.568;7.870;2022-07-23T02:28:04;7.65;;;6.82;;
7116;SDS011;3600;48.568;7.870;2022-07-23T02:30:31;6.93;;;6.18;;
7116;SDS011;3600;48.568;7.870;2022-07-23T02:32:58;6.80;;;6.20;;
7116;SDS011;3600;48.568;7.870;2022-07-23T02:35:25;6.53;;;6.03;;
7116;SDS011;3600;48.568;7.870;2022-07-23T02:37:52;7.63;;;7.03;;
7116;SDS011;3600;48.568;7.870;2022-07-23T02:40:18;7.80;;;7.10;;
7116;SDS011;3600;48.568;7.870;2022-07-23T02:42:46;7.55;;;6.75;;
7116;SDS011;3600;48.568;7.870;2022-07-23T02:45:12;7.65;;;6.80;;
7116;SDS011;3600;48.568;7.870;2022-07-23T02:47:39;8.18;;;7.35;;
7116;SDS011;3600;48.568;7.870;2022-07-23T02:50:06;7.95;;;6.80;;
7116;SDS011;3600;48.568;7.870;2022-07-23T02:52:33;7.35;;;6.75;;
7116;SDS011;3600;48.568;7.870;2022-07-23T02:55:00;7.80;;;7.20;;
7116;SDS011;3600;48.568;7.870;2022-07-23T02:57:27;7.47;;;6.70;;
7116;SDS011;3600;48.568;7.870;2022-07-23T02:59:54;7.65;;;7.05;;
7116;SDS011;3600;48.568;7.870;2022-07-23T03:02:21;7.85;;;7.20;;
7116;SDS011;3600;48.568;7.870;2022-07-23T03:04:47;7.18;;;6.57;;
7116;SDS011;3600;48.568;7.870;2022-07-23T03:07:15;8.18;;;7.45;;
7116;SDS011;3600;48.568;7.870;2022-07-23T03:09:43;7.43;;;6.82;;
7116;SDS011;3600;48.568;7.870;2022-07-23T03:12:09;7.97;;;7.18;;
7116;SDS011;3600;48.568;7.870;2022-07-23T03:14:39;8.88;;;8.00;;
7116;SDS011;3600;48.568;7.870;2022-07-23T03:17:07;7.55;;;6.82;;
7116;SDS011;3600;48.568;7.870;2022-07-23T03:19:34;7.65;;;7.05;;
7116;SDS011;3600;48.568;7.870;2022-07-23T03:22:01;7.13;;;6.63;;
7116;SDS011;3600;48.568;7.870;2022-07-23T03:24:28;8.52;;;6.90;;
7116;SDS011;3600;48.568;7.870;2022-07-23T03:27:13;7.80;;;7.15;;
7116;SDS011;3600;48.568;7.870;2022-07-23T03:29:40;7.63;;;6.90;;
7116;SDS011;3600;48.568;7.870;2022-07-23T03:32:07;6.57;;;6.07;;
7116;SDS011;3600;48.568;7.870;2022-07-23T03:34:34;6.85;;;6.35;;
7116;SDS011;3600;48.568;7.870;2022-07-23T03:37:01;7.97;;;7.18;;
7116;SDS011;3600;48.568;7.870;2022-07-23T03:39:28;6.88;;;6.30;;
7116;SDS011;3600;48.568;7.870;2022-07-23T03:41:55;7.22;;;6.60;;
7116;SDS011;3600;48.568;7.870;2022-07-23T03:44:22;7.15;;;6.55;;
7116;SDS011;3600;48.568;7.870;2022-07-23T03:46:49;7.00;;;6.40;;
7116;SDS011;3600;48.568;7.870;2022-07-23T03:49:16;7.18;;;6.57;;
7116;SDS011;3600;48.568;7.870;2022-07-23T03:51:44;6.95;;;6.22;;
7116;SDS011;3600;48.568;7.870;2022-07-23T03:54:10;6.65;;;6.03;;
7116;SDS011;3600;48.568;7.870;2022-07-23T03:56:37;6.90;;;6.40;;
7116;SDS011;3600;48.568;7.870;2022-07-23T03:59:04;7.00;;;6.40;;
7116;SDS011;3600;48.568;7.870;2022-07-23T04:01:31;6.85;;;6.25;;
7116;SDS011;3600;48.568;7.870;2022-07-23T04:03:58;6.65;;;6.05;;
7116;SDS011;3600;48.568;7.870;2022-07-23T04:06:25;6.68;;;6.05;;
7116;SDS011;3600;48.568;7.870;2022-07-23T04:08:52;6.43;;;5.78;;
7116;SDS011;3600;48.568;7.870;2022-07-23T04:11:19;6.70;;;6.10;;
7116;SDS011;3600;48.568;7.870;2022-07-23T04:13:46;6.65;;;6.15;;
7116;SDS011;3600;48.568;7.870;2022-07-23T04:16:13;6.93;;;6.22;;
7116;SDS011;3600;48.568;7.870;2022-07-23T04:18:40;6.57;;;5.97;;
7116;SDS011;3600;48.568;7.870;2022-07-23T04:21:06;7.03;;;6.20;;
7116;SDS011;3600;48.568;7.870;2022-07-23T04:23:33;7.10;;;6.47;;
7116;SDS011;3600;48.568;7.870;2022-07-23T04:26:00;7.88;;;6.28;;
7116;SDS011;3600;48.568;7.870;2022-07-23T04:28:27;7.50;;;6.32;;
7116;SDS011;3600;48.568;7.870;2022-07-23T04:30:55;7.85;;;6.93;;
7116;SDS011;3600;48.568;7.870;2022-07-23T04:33:25;6.88;;;6.25;;
7116;SDS011;3600;48.568;7.870;2022-07-23T04:35:52;6.65;;;6.05;;
7116;SDS011;3600;48.568;7.870;2022-07-23T04:38:19;6.72;;;6.13;;
7116;SDS011;3600;48.568;7.870;2022-07-23T04:40:46;7.68;;;6.25;;
7116;SDS011;3600;48.568;7.870;2022-07-23T04:43:13;5.95;;;5.45;;
7116;SDS011;3600;48.568;7.870;2022-07-23T04:45:40;6.20;;;5.60;;
7116;SDS011;3600;48.568;7.870;2022-07-23T04:48:09;8.00;;;6.18;;
7116;SDS011;3600;48.568;7.870;2022-07-23T04:50:35;6.30;;;5.70;;
7116;SDS011;3600;48.568;7.870;2022-07-23T04:53:02;7.03;;;6.32;;
7116;SDS011;3600;48.568;7.870;2022-07-23T04:55:29;6.82;;;6.13;;
7116;SDS011;3600;48.568;7.870;2022-07-23T04:57:56;7.07;;;6.35;;
7116;SDS011;3600;48.568;7.870;2022-07-23T05:00:22;6.35;;;5.75;;
7116;SDS011;3600;48.568;7.870;2022-07-23T05:02:49;6.60;;;5.65;;
7116;SDS011;3600;48.568;7.870;2022-07-23T05:05:16;6.32;;;5.72;;
7116;SDS011;3600;48.568;7.870;2022-07-23T05:07:43;7.32;;;6.63;;
7116;SDS011;3600;48.568;7.870;2022-07-23T05:10:10;6.95;;;6.35;;
7116;SDS011;3600;48.568;7.870;2022-07-23T05:12:36;6.45;;;5.93;;
7116;SDS011;3600;48.568;7.870;2022-07-23T05:15:03;6.80;;;6.30;;
7116;SDS011;3600;48.568;7.870;2022-07-23T05:17:30;6.50;;;6.00;;
7116;SDS011;3600;48.568;7.870;2022-07-23T05:19:57;7.22;;;6.63;;
7116;SDS011;3600;48.568;7.870;2022-07-23T05:22:26;7.50;;;6.90;;
7116;SDS011;3600;48.568;7.870;2022-07-23T05:24:53;7.28;;;6.57;;
7116;SDS011;3600;48.568;7.870;2022-07-23T05:27:20;7.15;;;6.38;;
7116;SDS011;3600;48.568;7.870;2022-07-23T05:29:47;6.68;;;6.10;;
7116;SDS011;3600;48.568;7.870;2022-07-23T05:32:14;6.55;;;5.95;;
7116;SDS011;3600;48.568;7.870;2022-07-23T05:34:40;7.03;;;6.53;;
7116;SDS011;3600;48.568;7.870;2022-07-23T05:37:07;6.63;;;6.03;;
7116;SDS011;3600;48.568;7.870;2022-07-23T05:39:34;6.80;;;6.20;;
7116;SDS011;3600;48.568;7.870;2022-07-23T05:42:00;6.63;;;6.03;;
7116;SDS011;3600;48.568;7.870;2022-07-23T05:44:27;6.88;;;6.18;;
7116;SDS011;3600;48.568;7.870;2022-07-23T05:46:59;6.70;;;6.20;;
7116;SDS011;3600;48.568;7.870;2022-07-23T05:49:26;7.60;;;6.95;;
7116;SDS011;3600;48.568;7.870;2022-07-23T05:51:53;7.03;;;6.43;;
7116;SDS011;3600;48.568;7.870;2022-07-23T05:54:20;7.63;;;6.57;;
7116;SDS011;3600;48.568;7.870;2022-07-23T05:56:47;6.43;;;5.93;;
7116;SDS011;3600;48.568;7.870;2022-07-23T05:59:13;6.72;;;6.13;;
7116;SDS011;3600;48.568;7.870;2022-07-23T06:01:41;6.55;;;5.95;;
7116;SDS011;3600;48.568;7.870;2022-07-23T06:04:08;7.15;;;6.47;;
7116;SDS011;3600;48.568;7.870;2022-07-23T06:06:35;7.63;;;6.82;;
7116;SDS011;3600;48.568;7.870;2022-07-23T06:09:02;7.57;;;6.72;;
7116;SDS011;3600;48.568;7.870;2022-07-23T06:11:30;6.82;;;6.32;;
7116;SDS011;3600;48.568;7.870;2022-07-23T06:13:57;6.88;;;6.28;;
7116;SDS011;3600;48.568;7.870;2022-07-23T06:16:24;7.28;;;6.68;;
7116;SDS011;3600;48.568;7.870;2022-07-23T06:18:51;7.15;;;6.55;;
7116;SDS011;3600;48.568;7.870;2022-07-23T06:21:17;10.50;;;7.88;;
7116;SDS011;3600;48.568;7.870;2022-07-23T06:24:04;7.95;;;7.10;;
7116;SDS011;3600;48.568;7.870;2022-07-23T06:26:31;7.88;;;7.28;;
7116;SDS011;3600;48.568;7.870;2022-07-23T06:28:58;7.57;;;6.97;;
7116;SDS011;3600;48.568;7.870;2022-07-23T06:31:25;7.82;;;6.82;;
7116;SDS011;3600;48.568;7.870;2022-07-23T06:33:52;7.25;;;6.68;;
7116;SDS011;3600;48.568;7.870;2022-07-23T06:36:19;7.63;;;7.03;;
7116;SDS011;3600;48.568;7.870;2022-07-23T06:38:45;7.22;;;6.63;;
7116;SDS011;3600;48.568;7.870;2022-07-23T06:41:14;7.78;;;6.57;;
7116;SDS011;3600;48.568;7.870;2022-07-23T06:43:40;7.57;;;6.88;;
7116;SDS011;3600;48.568;7.870;2022-07-23T06:46:07;6.88;;;6.35;;
7116;SDS011;3600;48.568;7.870;2022-07-23T06:48:34;6.80;;;6.20;;
7116;SDS011;3600;48.568;7.870;2022-07-23T06:51:02;7.45;;;6.75;;
7116;SDS011;3600;48.568;7.870;2022-07-23T06:53:29;7.50;;;6.55;;
7116;SDS011;3600;48.568;7.870;2022-07-23T06:55:56;6.53;;;5.95;;
7116;SDS011;3600;48.568;7.870;2022-07-23T06:58:23;6.40;;;5.80;;
7116;SDS011;3600;48.568;7.870;2022-07-23T07:00:49;5.63;;;5.05;;
7116;SDS011;3600;48.568;7.870;2022-07-23T07:03:16;7.47;;;6.78;;
7116;SDS011;3600;48.568;7.870;2022-07-23T07:05:44;7.38;;;6.68;;
7116;SDS011;3600;48.568;7.870;2022-07-23T07:08:11;7.63;;;7.00;;
7116;SDS011;3600;48.568;7.870;2022-07-23T07:10:38;7.07;;;6.47;;
7116;SDS011;3600;48.568;7.870;2022-07-23T07:13:05;7.57;;;6.85;;
7116;SDS011;3600;48.568;7.870;2022-07-23T07:15:32;7.40;;;6.70;;
7116;SDS011;3600;48.568;7.870;2022-07-23T07:17:59;7.50;;;6.90;;
7116;SDS011;3600;48.568;7.870;2022-07-23T07:20:25;7.75;;;6.95;;
7116;SDS011;3600;48.568;7.870;2022-07-23T07:22:52;7.15;;;6.55;;
7116;SDS011;3600;48.568;7.870;2022-07-23T07:25:19;8.48;;;6.80;;
7116;SDS011;3600;48.568;7.870;2022-07-23T07:27:46;7.88;;;7.07;;
7116;SDS011;3600;48.568;7.870;2022-07-23T07:30:13;7.03;;;6.43;;
7116;SDS011;3600;48.568;7.870;2022-07-23T07:32:40;7.47;;;6.78;;
7116;SDS011;3600;48.568;7.870;2022-07-23T07:35:23;7.35;;;6.85;;
7116;SDS011;3600;48.568;7.870;2022-07-23T07:37:51;7.90;;;7.25;;
7116;SDS011;3600;48.568;7.870;2022-07-23T07:40:18;6.82;;;6.22;;
7116;SDS011;3600;48.568;7.870;2022-07-23T07:42:48;7.18;;;6.68;;
7116;SDS011;3600;48.568;7.870;2022-07-23T07:45:17;8.30;;;7.50;;
7116;SDS011;3600;48.568;7.870;2022-07-23T07:47:46;7.45;;;6.85;;
7116;SDS011;3600;48.568;7.870;2022-07-23T07:50:14;8.15;;;6.82;;
7116;SDS011;3600;48.568;7.870;2022-07-23T07:52:40;7.18;;;6.50;;
7116;SDS011;3600;48.568;7.870;2022-07-23T07:55:07;6.80;;;6.20;;
7116;SDS011;3600;48.568;7.870;2022-07-23T07:57:35;7.60;;;6.20;;
7116;SDS011;3600;48.568;7.870;2022-07-23T08:00:03;7.50;;;6.85;;
7116;SDS011;3600;48.568;7.870;2022-07-23T08:02:57;6.80;;;6.25;;
7116;SDS011;3600;48.568;7.870;2022-07-23T08:05:25;6.68;;;6.07;;
7116;SDS011;3600;48.568;7.870;2022-07-23T08:07:57;6.80;;;6.20;;
7116;SDS011;3600;48.568;7.870;2022-07-23T08:10:25;7.78;;;7.10;;
7116;SDS011;3600;48.568;7.870;2022-07-23T08:12:54;6.88;;;6.28;;
7116;SDS011;3600;48.568;7.870;2022-07-23T08:15:23;6.50;;;5.90;;
7116;SDS011;3600;48.568;7.870;2022-07-23T08:17:51;6.22;;;5.75;;
7116;SDS011;3600;48.568;7.870;2022-07-23T08:20:19;6.10;;;5.60;;
7116;SDS011;3600;48.568;7.870;2022-07-23T08:25:27;6.65;;;6.10;;
7116;SDS011;3600;48.568;7.870;2022-07-23T08:27:55;6.38;;;5.78;;
7116;SDS011;3600;48.568;7.870;2022-07-23T08:30:23;6.55;;;5.88;;
7116;SDS011;3600;48.568;7.870;2022-07-23T08:32:57;6.22;;;5.70;;
7116;SDS011;3600;48.568;7.870;2022-07-23T08:35:28;6.70;;;6.05;;
7116;SDS011;3600;48.568;7.870;2022-07-23T08:37:55;6.10;;;5.60;;
7116;SDS011;3600;48.568;7.870;2022-07-23T08:40:23;7.05;;;6.35;;
7116;SDS011;3600;48.568;7.870;2022-07-23T08:42:55;7.40;;;6.70;;
7116;SDS011;3600;48.568;7.870;2022-07-23T08:45:23;7.22;;;6.53;;
7116;SDS011;3600;48.568;7.870;2022-07-23T08:47:51;7.07;;;6.43;;
7116;SDS011;3600;48.568;7.870;2022-07-23T08:50:23;6.90;;;6.28;;
7116;SDS011;3600;48.568;7.870;2022-07-23T08:52:50;5.95;;;5.45;;
7116;SDS011;3600;48.568;7.870;2022-07-23T08:55:19;6.68;;;6.07;;
7116;SDS011;3600;48.568;7.870;2022-07-23T08:57:49;9.23;;;6.65;;
7116;SDS011;3600;48.568;7.870;2022-07-23T09:00:18;7.88;;;7.22;;
7116;SDS011;3600;48.568;7.870;2022-07-23T09:02:46;7.40;;;6.80;;
7116;SDS011;3600;48.568;7.870;2022-07-23T09:05:14;7.65;;;6.90;;
7116;SDS011;3600;48.568;7.870;2022-07-23T09:13:22;7.07;;;6.43;;
7116;SDS011;3600;48.568;7.870;2022-07-23T09:18:38;7.40;;;6.75;;
7116;SDS011;3600;48.568;7.870;2022-07-23T09:21:06;7.45;;;6.63;;
7116;SDS011;3600;48.568;7.870;2022-07-23T09:23:38;7.72;;;7.05;;
7116;SDS011;3600;48.568;7.870;2022-07-23T09:26:20;7.57;;;6.88;;
7116;SDS011;3600;48.568;7.870;2022-07-23T09:28:58;8.27;;;7.47;;
7116;SDS011;3600;48.568;7.870;2022-07-23T09:31:42;7.85;;;7.20;;
7116;SDS011;3600;48.568;7.870;2022-07-23T09:34:17;7.85;;;7.15;;
7116;SDS011;3600;48.568;7.870;2022-07-23T09:36:44;8.65;;;7.95;;
7116;SDS011;3600;48.568;7.870;2022-07-23T09:39:12;7.63;;;7.03;;
7116;SDS011;3600;48.568;7.870;2022-07-23T09:41:45;8.05;;;7.35;;
7116;SDS011;3600;48.568;7.870;2022-07-23T09:44:15;7.32;;;6.72;;
7116;SDS011;3600;48.568;7.870;2022-07-23T09:46:43;8.20;;;7.50;;
7116;SDS011;3600;48.568;7.870;2022-07-23T09:49:13;8.30;;;7.55;;
7116;SDS011;3600;48.568;7.870;2022-07-23T09:51:44;8.88;;;8.10;;
7116;SDS011;3600;48.568;7.870;2022-07-23T09:54:37;7.55;;;6.85;;
7116;SDS011;3600;48.568;7.870;2022-07-23T09:57:10;8.00;;;7.30;;
7116;SDS011;3600;48.568;7.870;2022-07-23T09:59:43;8.85;;;8.00;;
7116;SDS011;3600;48.568;7.870;2022-07-23T10:02:12;8.40;;;7.70;;
7116;SDS011;3600;48.568;7.870;2022-07-23T10:04:41;9.60;;;6.72;;
7116;SDS011;3600;48.568;7.870;2022-07-23T10:07:08;7.00;;;6.40;;
7116;SDS011;3600;48.568;7.870;2022-07-23T10:09:37;8.48;;;7.78;;
7116;SDS011;3600;48.568;7.870;2022-07-23T10:12:09;8.35;;;7.53;;
7116;SDS011;3600;48.568;7.870;2022-07-23T10:14:56;8.07;;;7.38;;
7116;SDS011;3600;48.568;7.870;2022-07-23T10:17:24;7.90;;;7.13;;
7116;SDS011;3600;48.568;7.870;2022-07-23T10:19:50;7.70;;;6.90;;
7116;SDS011;3600;48.568;7.870;2022-07-23T10:22:22;6.93;;;6.43;;
7116;SDS011;3600;48.568;7.870;2022-07-23T10:25:12;7.07;;;6.47;;
7116;SDS011;3600;48.568;7.870;2022-07-23T10:42:44;6.75;;;6.15;;
7116;SDS011;3600;48.568;7.870;2022-07-23T10:47:48;7.65;;;6.78;;
7116;SDS011;3600;48.568;7.870;2022-07-23T10:58:01;7.25;;;6.63;;
7116;SDS011;3600;48.568;7.870;2022-07-23T11:00:30;7.35;;;6.75;;
7116;SDS011;3600;48.568;7.870;2022-07-23T11:02:59;7.03;;;6.32;;
7116;SDS011;3600;48.568;7.870;2022-07-23T11:05:40;8.20;;;6.93;;
7116;SDS011;3600;48.568;7.870;2022-07-23T11:10:39;6.78;;;6.22;;
7116;SDS011;3600;48.568;7.870;2022-07-23T11:26:50;7.18;;;6.47;;
7116;SDS011;3600;48.568;7.870;2022-07-23T11:31:58;7.40;;;6.80;;
7116;SDS011;3600;48.568;7.870;2022-07-23T11:34:32;7.57;;;6.85;;
7116;SDS011;3600;48.568;7.870;2022-07-23T11:36:59;6.80;;;6.20;;
7116;SDS011;3600;48.568;7.870;2022-07-23T11:39:27;7.30;;;6.70;;
7116;SDS011;3600;48.568;7.870;2022-07-23T11:41:56;7.45;;;6.85;;
7116;SDS011;3600;48.568;7.870;2022-07-23T11:44:46;6.60;;;6.00;;
7116;SDS011;3600;48.568;7.870;2022-07-23T11:47:14;7.15;;;6.65;;
7116;SDS011;3600;48.568;7.870;2022-07-23T11:49:54;7.47;;;6.78;;
7116;SDS011;3600;48.568;7.870;2022-07-23T11:52:23;7.90;;;7.28;;
7116;SDS011;3600;48.568;7.870;2022-07-23T11:54:51;7.75;;;7.13;;
7116;SDS011;3600;48.568;7.870;2022-07-23T11:57:27;8.02;;;7.32;;
7116;SDS011;3600;48.568;7.870;2022-07-23T12:00:06;7.72;;;7.05;;
7116;SDS011;3600;48.568;7.870;2022-07-23T12:02:55;7.97;;;7.20;;
7116;SDS011;3600;48.568;7.870;2022-07-23T12:05:31;6.93;;;6.22;;
7116;SDS011;3600;48.568;7.870;2022-07-23T12:08:00;6.88;;;6.20;;
7116;SDS011;3600;48.568;7.870;2022-07-23T12:10:29;6.97;;;6.47;;
7116;SDS011;3600;48.568;7.870;2022-07-23T12:13:10;7.55;;;6.88;;
7116;SDS011;3600;48.568;7.870;2022-07-23T12:15:40;7.32;;;6.68;;
7116;SDS011;3600;48.568;7.870;2022-07-23T12:18:09;7.85;;;7.07;;
7116;SDS011;3600;48.568;7.870;2022-07-23T12:20:41;7.95;;;7.28;;
7116;SDS011;3600;48.568;7.870;2022-07-23T12:23:11;7.13;;;6.57;;
7116;SDS011;3600;48.568;7.870;2022-07-23T12:25:46;8.07;;;7.45;;
7116;SDS011;3600;48.568;7.870;2022-07-23T12:28:15;7.50;;;6.90;;
7116;SDS011;3600;48.568;7.870;2022-07-23T12:30:47;7.85;;;7.18;;
7116;SDS011;3600;48.568;7.870;2022-07-23T12:33:34;7.75;;;6.93;;
7116;SDS011;3600;48.568;7.870;2022-07-23T12:36:05;7.00;;;6.50;;
7116;SDS011;3600;48.568;7.870;2022-07-23T12:38:46;7.43;;;6.82;;
7116;SDS011;3600;48.568;7.870;2022-07-23T12:41:15;8.55;;;6.68;;
7116;SDS011;3600;48.568;7.870;2022-07-23T12:43:43;6.70;;;6.10;;
7116;SDS011;3600;48.568;7.870;2022-07-23T12:46:12;7.03;;;6.43;;
7116;SDS011;3600;48.568;7.870;2022-07-23T12:53:52;6.70;;;6.15;;
7116;SDS011;3600;48.568;7.870;2022-07-23T12:56:27;7.05;;;6.55;;
7116;SDS011;3600;48.568;7.870;2022-07-23T13:01:34;7.57;;;6.97;;
7116;SDS011;3600;48.568;7.870;2022-07-23T13:06:45;6.25;;;5.70;;
7116;SDS011;3600;48.568;7.870;2022-07-23T13:09:15;7.32;;;6.72;;
7116;SDS011;3600;48.568;7.870;2022-07-23T13:11:44;7.43;;;6.72;;
7116;SDS011;3600;48.568;7.870;2022-07-23T13:14:13;6.57;;;6.07;;
7116;SDS011;3600;48.568;7.870;2022-07-23T13:16:41;7.03;;;6.43;;
7116;SDS011;3600;48.568;7.870;2022-07-23T13:19:09;7.22;;;6.60;;
7116;SDS011;3600;48.568;7.870;2022-07-23T13:21:38;6.60;;;6.10;;
7116;SDS011;3600;48.568;7.870;2022-07-23T13:24:06;6.68;;;6.18;;
7116;SDS011;3600;48.568;7.870;2022-07-23T13:26:35;6.50;;;6.00;;
7116;SDS011;3600;48.568;7.870;2022-07-23T13:29:05;6.10;;;5.60;;
7116;SDS011;3600;48.568;7.870;2022-07-23T13:31:35;6.35;;;5.85;;
7116;SDS011;3600;48.568;7.870;2022-07-23T13:34:04;6.45;;;5.88;;
7116;SDS011;3600;48.568;7.870;2022-07-23T13:36:51;6.63;;;6.03;;
7116;SDS011;3600;48.568;7.870;2022-07-23T13:39:19;6.82;;;6.18;;
7116;SDS011;3600;48.568;7.870;2022-07-23T13:41:46;6.47;;;5.95;;
7116;SDS011;3600;48.568;7.870;2022-07-23T13:44:16;7.45;;;6.78;;
7116;SDS011;3600;48.568;7.870;2022-07-23T13:46:43;5.93;;;5.43;;
7116;SDS011;3600;48.568;7.870;2022-07-23T13:49:13;6.28;;;5.68;;
7116;SDS011;3600;48.568;7.870;2022-07-23T13:51:40;6.32;;;5.65;;
7116;SDS011;3600;48.568;7.870;2022-07-23T13:54:07;6.45;;;5.93;;
7116;SDS011;3600;48.568;7.870;2022-07-23T13:56:34;6.28;;;5.78;;
7116;SDS011;3600;48.568;7.870;2022-07-23T13:59:02;5.97;;;5.47;;
7116;SDS011;3600;48.568;7.870;2022-07-23T14:01:32;6.82;;;6.22;;
7116;SDS011;3600;48.568;7.870;2022-07-23T14:04:15;5.78;;;5.25;;
7116;SDS011;3600;48.568;7.870;2022-07-23T14:06:43;6.07;;;5.63;;
7116;SDS011;3600;48.568;7.870;2022-07-23T14:09:17;6.75;;;6.10;;
7116;SDS011;3600;48.568;7.870;2022-07-23T14:11:44;6.70;;;6.10;;
7116;SDS011;3600;48.568;7.870;2022-07-23T14:14:11;6.03;;;5.63;;
7116;SDS011;3600;48.568;7.870;2022-07-23T14:16:39;6.40;;;5.90;;
7116;SDS011;3600;48.568;7.870;2022-07-23T14:19:06;7.60;;;5.95;;
7116;SDS011;3600;48.568;7.870;2022-07-23T14:21:33;6.65;;;6.15;;
7116;SDS011;3600;48.568;7.870;2022-07-23T14:24:00;7.07;;;6.47;;
7116;SDS011;3600;48.568;7.870;2022-07-23T14:26:26;7.20;;;5.60;;
7116;SDS011;3600;48.568;7.870;2022-07-23T14:28:53;6.38;;;5.82;;
7116;SDS011;3600;48.568;7.870;2022-07-23T14:31:20;6.47;;;5.97;;
7116;SDS011;3600;48.568;7.870;2022-07-23T14:33:47;5.72;;;5.30;;
7116;SDS011;3600;48.568;7.870;2022-07-23T14:36:15;6.55;;;6.05;;
7116;SDS011;3600;48.568;7.870;2022-07-23T14:38:42;6.82;;;5.85;;
7116;SDS011;3600;48.568;7.870;2022-07-23T14:41:09;6.20;;;5.70;;
7116;SDS011;3600;48.568;7.870;2022-07-23T14:43:37;6.13;;;5.63;;
7116;SDS011;3600;48.568;7.870;2022-07-23T14:46:04;6.55;;;5.40;;
7116;SDS011;3600;48.568;7.870;2022-07-23T14:48:31;6.63;;;6.03;;
7116;SDS011;3600;48.568;7.870;2022-07-23T14:50:58;6.63;;;6.03;;
7116;SDS011;3600;48.568;7.870;2022-07-23T14:53:25;6.72;;;6.22;;
7116;SDS011;3600;48.568;7.870;2022-07-23T14:55:52;6.53;;;6.03;;
7116;SDS011;3600;48.568;7.870;2022-07-23T14:58:20;6.40;;;5.93;;
7116;SDS011;3600;48.568;7.870;2022-07-23T15:00:47;6.50;;;6.00;;
7116;SDS011;3600;48.568;7.870;2022-07-23T15:03:14;6.63;;;6.13;;
7116;SDS011;3600;48.568;7.870;2022-07-23T15:05:41;5.90;;;5.45;;
7116;SDS011;3600;48.568;7.870;2022-07-23T15:08:08;6.50;;;5.95;;
7116;SDS011;3600;48.568;7.870;2022-07-23T15:10:35;7.45;;;6.75;;
7116;SDS011;3600;48.568;7.870;2022-07-23T15:13:03;6.75;;;6.13;;
7116;SDS011;3600;48.568;7.870;2022-07-23T15:15:33;6.78;;;6.28;;
7116;SDS011;3600;48.568;7.870;2022-07-23T15:18:00;6.70;;;6.20;;
7116;SDS011;3600;48.568;7.870;2022-07-23T15:20:27;6.50;;;6.00;;
7116;SDS011;3600;48.568;7.870;2022-07-23T15:23:03;6.80;;;6.15;;
7116;SDS011;3600;48.568;7.870;2022-07-23T15:25:33;7.72;;;6.10;;
7116;SDS011;3600;48.568;7.870;2022-07-23T15:28:00;6.70;;;6.20;;
7116;SDS011;3600;48.568;7.870;2022-07-23T15:30:28;7.03;;;6.45;;
7116;SDS011;3600;48.568;7.870;2022-07-23T15:32:55;6.75;;;6.25;;
7116;SDS011;3600;48.568;7.870;2022-07-23T15:35:24;9.02;;;6.10;;
7116;SDS011;3600;48.568;7.870;2022-07-23T15:37:50;6.25;;;5.75;;
7116;SDS011;3600;48.568;7.870;2022-07-23T15:40:17;7.13;;;6.53;;
7116;SDS011;3600;48.568;7.870;2022-07-23T15:42:44;6.88;;;6.32;;
7116;SDS011;3600;48.568;7.870;2022-07-23T15:45:11;6.53;;;5.90;;
7116;SDS011;3600;48.568;7.870;2022-07-23T15:47:40;6.22;;;5.72;;
7116;SDS011;3600;48.568;7.870;2022-07-23T15:50:09;7.45;;;6.00;;
7116;SDS011;3600;48.568;7.870;2022-07-23T15:52:36;6.68;;;6.00;;
7116;SDS011;3600;48.568;7.870;2022-07-23T15:55:04;6.28;;;5.68;;
7116;SDS011;3600;48.568;7.870;2022-07-23T15:57:42;6.63;;;6.13;;
7116;SDS011;3600;48.568;7.870;2022-07-23T16:00:10;6.45;;;5.95;;
7116;SDS011;3600;48.568;7.870;2022-07-23T16:02:37;6.00;;;5.53;;
7116;SDS011;3600;48.568;7.870;2022-07-23T16:05:04;6.25;;;5.57;;
7116;SDS011;3600;48.568;7.870;2022-07-23T16:07:31;5.90;;;5.40;;
7116;SDS011;3600;48.568;7.870;2022-07-23T16:10:04;6.43;;;5.68;;
7116;SDS011;3600;48.568;7.870;2022-07-23T16:12:31;5.88;;;5.47;;
7116;SDS011;3600;48.568;7.870;2022-07-23T16:14:58;5.85;;;5.38;;
7116;SDS011;3600;48.568;7.870;2022-07-23T16:17:31;6.13;;;5.72;;
7116;SDS011;3600;48.568;7.870;2022-07-23T16:19:58;6.00;;;5.40;;
7116;SDS011;3600;48.568;7.870;2022-07-23T16:22:25;6.10;;;5.57;;
7116;SDS011;3600;48.568;7.870;2022-07-23T16:24:52;5.85;;;5.30;;
7116;SDS011;3600;48.568;7.870;2022-07-23T16:27:19;5.93;;;5.43;;
7116;SDS011;3600;48.568;7.870;2022-07-23T16:29:46;5.30;;;4.90;;